createdAt,value
2022-11-07T00:01:19.757Z,2120.50
2022-11-07T00:03:57.359Z,1.75
2022-11-07T00:06:31.086Z,2307.60
2022-11-07T00:09:04.986Z,0.00
2022-11-07T00:11:38.821Z,0.00
2022-11-07T00:14:13.607Z,1.00
2022-11-07T00:16:48.937Z,0.00
2022-11-07T00:19:23.877Z,0.00
2022-11-07T00:21:57.680Z,99.25
2022-11-07T00:24:31.345Z,0.00
2022-11-07T00:27:04.329Z,245.60
2022-11-07T00:29:37.957Z,0.75
2022-11-07T00:32:11.759Z,5.75
2022-11-07T00:34:46.598Z,3752.00
2022-11-07T00:37:19.552Z,1.50
2022-11-07T00:39:53.578Z,1.00
2022-11-07T00:42:27.100Z,1.00
2022-11-07T00:45:00.917Z,0.25
2022-11-07T00:47:33.962Z,0.00
2022-11-07T00:50:10.413Z,0.00
2022-11-07T00:52:44.259Z,0.75
2022-11-07T00:55:17.899Z,0.75
2022-11-07T00:57:51.896Z,3353.50
2022-11-07T01:00:25.609Z,2685.60
2022-11-07T01:03:13.325Z,1.00
2022-11-07T01:05:59.210Z,0.00
2022-11-07T01:08:33.518Z,0.00
2022-11-07T01:11:08.078Z,0.00
2022-11-07T01:13:41.354Z,0.75
2022-11-07T01:16:15.095Z,3337.75
2022-11-07T01:18:48.864Z,0.33
2022-11-07T01:21:23.907Z,0.00
2022-11-07T01:23:56.775Z,0.00
2022-11-07T01:26:30.259Z,0.00
2022-11-07T01:29:04.111Z,0.00
2022-11-07T01:31:37.271Z,0.00
2022-11-07T01:34:10.366Z,0.00
2022-11-07T01:36:45.705Z,3228.80
2022-11-07T01:39:19.460Z,0.00
2022-11-07T01:41:53.013Z,0.00
2022-11-07T01:44:53.034Z,55.20
2022-11-07T01:47:31.141Z,0.00
2022-11-07T01:50:07.260Z,0.00
2022-11-07T01:52:47.432Z,0.00
2022-11-07T01:55:23.759Z,0.00
2022-11-07T01:58:00.779Z,0.00
2022-11-07T02:00:35.493Z,0.00
2022-11-07T02:03:11.258Z,2.25
2022-11-07T02:05:49.032Z,0.00
2022-11-07T02:08:23.930Z,19.75
2022-11-07T02:11:00.215Z,3.50
2022-11-07T02:13:34.032Z,7.00
2022-11-07T02:16:08.537Z,8.50
2022-11-07T02:18:45.195Z,12.50
2022-11-07T02:21:36.217Z,10.50
2022-11-07T02:24:25.365Z,11.00
2022-11-07T02:26:59.905Z,36.50
2022-11-07T02:29:34.616Z,9.00
2022-11-07T02:32:10.859Z,4.00
2022-11-07T02:34:44.281Z,17.75
2022-11-07T02:37:25.328Z,7.50
2022-11-07T02:40:01.707Z,5.00
2022-11-07T02:42:44.908Z,2.00
2022-11-07T02:45:23.306Z,64.60
2022-11-07T02:47:56.725Z,0.75
2022-11-07T02:50:30.379Z,122.80
2022-11-07T02:53:04.504Z,0.00
2022-11-07T02:55:39.808Z,10.50
2022-11-07T02:58:13.598Z,3843.80
2022-11-07T03:00:47.458Z,2221.50
2022-11-07T03:03:21.306Z,0.00
2022-11-07T03:05:55.285Z,3434.60
2022-11-07T03:08:28.274Z,288.75
2022-11-07T03:11:03.431Z,0.00
2022-11-07T03:13:37.010Z,49.00
2022-11-07T03:16:12.599Z,38.25
2022-11-07T03:18:46.554Z,591.00
2022-11-07T03:21:20.166Z,1006.25
2022-11-07T03:23:54.030Z,1.00
2022-11-07T03:26:29.093Z,71.75
2022-11-07T03:29:02.815Z,215.60
2022-11-07T03:31:36.471Z,439.00
2022-11-07T03:34:10.327Z,1782.00
2022-11-07T03:36:43.839Z,0.00
2022-11-07T03:39:19.511Z,3585.60
2022-11-07T03:41:58.169Z,3507.20
2022-11-07T03:44:31.272Z,3805.75
2022-11-07T03:47:04.199Z,3409.60
2022-11-07T03:49:37.008Z,0.00
2022-11-07T03:52:10.515Z,0.67
2022-11-07T03:54:44.376Z,9.50
2022-11-07T03:57:19.346Z,3043.50
2022-11-07T03:59:52.309Z,23.50
2022-11-07T04:02:26.112Z,3789.00
2022-11-07T04:05:00.062Z,3793.80
2022-11-07T04:07:33.770Z,4.00
2022-11-07T04:10:08.388Z,3796.50
2022-11-07T04:13:00.779Z,3149.00
2022-11-07T04:15:51.905Z,3739.80
2022-11-07T04:18:25.459Z,381.75
2022-11-07T04:20:59.106Z,0.75
2022-11-07T04:23:32.846Z,1536.80
2022-11-07T04:26:24.153Z,0.00
2022-11-07T04:28:58.482Z,3788.50
2022-11-07T04:31:31.465Z,0.67
2022-11-07T04:34:04.989Z,417.40
2022-11-07T04:36:39.292Z,1139.20
2022-11-07T04:39:12.102Z,0.33
2022-11-07T04:41:45.954Z,34.00
2022-11-07T04:44:21.419Z,2645.25
2022-11-07T04:46:55.545Z,1543.40
2022-11-07T04:49:28.328Z,3743.00
2022-11-07T04:52:01.179Z,556.80
2022-11-07T04:54:34.679Z,3777.80
2022-11-07T04:57:08.272Z,880.00
2022-11-07T04:59:43.420Z,2287.60
2022-11-07T05:02:17.298Z,2070.75
2022-11-07T05:04:51.195Z,3412.00
2022-11-07T05:07:25.289Z,3650.40
2022-11-07T05:09:58.855Z,803.60
2022-11-07T05:12:31.772Z,3751.00
2022-11-07T05:15:07.834Z,3752.50
2022-11-07T05:17:41.871Z,3761.25
2022-11-07T05:20:30.607Z,3734.80
2022-11-07T05:23:16.106Z,3748.75
2022-11-07T05:25:52.066Z,3731.75
2022-11-07T05:28:35.341Z,3650.75
2022-11-07T05:31:18.481Z,3732.00
2022-11-07T05:33:52.159Z,3373.25
2022-11-07T05:36:26.416Z,3675.80
2022-11-07T05:38:59.252Z,3707.50
2022-11-07T05:41:32.035Z,3738.00
2022-11-07T05:44:05.929Z,2850.40
2022-11-07T05:46:41.145Z,3693.00
2022-11-07T05:49:14.943Z,3713.50
2022-11-07T05:51:48.504Z,3751.00
2022-11-07T05:54:22.362Z,3749.80
2022-11-07T05:56:58.969Z,432.40
2022-11-07T05:59:32.716Z,3411.00
2022-11-07T06:02:07.783Z,3752.80
2022-11-07T06:04:41.454Z,3744.25
2022-11-07T06:07:15.088Z,3730.20
2022-11-07T06:09:48.890Z,3717.75
2022-11-07T06:12:22.296Z,3691.25
2022-11-07T06:14:56.193Z,3695.80
2022-11-07T06:17:30.471Z,3702.20
2022-11-07T06:20:05.163Z,3521.25
2022-11-07T06:22:38.896Z,3743.00
2022-11-07T06:25:12.757Z,3687.80
2022-11-07T06:27:46.724Z,3577.40
2022-11-07T06:30:19.746Z,143.25
2022-11-07T06:32:53.975Z,3639.60
2022-11-07T06:35:27.598Z,792.80
2022-11-07T06:38:03.426Z,3726.80
2022-11-07T06:40:36.303Z,316.75
2022-11-07T06:43:10.848Z,855.20
2022-11-07T06:45:45.868Z,2586.00
2022-11-07T06:48:21.193Z,3698.60
2022-11-07T06:50:58.018Z,3706.60
2022-11-07T06:53:32.084Z,3711.50
2022-11-07T06:56:07.082Z,3658.40
2022-11-07T06:58:40.864Z,3699.50
2022-11-07T07:01:15.158Z,3709.25
2022-11-07T07:03:49.539Z,3717.50
2022-11-07T07:06:23.626Z,3694.20
2022-11-07T07:08:57.424Z,1207.40
2022-11-07T07:11:30.267Z,3668.20
2022-11-07T07:14:04.686Z,1359.00
2022-11-07T07:16:40.412Z,2565.20
2022-11-07T07:19:14.645Z,3707.50
2022-11-07T07:21:47.796Z,3692.40
2022-11-07T07:24:20.793Z,3698.80
2022-11-07T07:26:53.618Z,3062.25
2022-11-07T07:29:26.536Z,3679.80
2022-11-07T07:31:59.351Z,3689.25
2022-11-07T07:34:33.540Z,3700.20
2022-11-07T07:37:06.367Z,3480.20
2022-11-07T07:39:40.338Z,3695.25
2022-11-07T07:42:13.189Z,3220.75
2022-11-07T07:44:46.019Z,2945.25
2022-11-07T07:47:18.881Z,3685.25
2022-11-07T07:49:53.052Z,3682.60
2022-11-07T07:52:26.046Z,3671.00
2022-11-07T07:54:59.726Z,3685.25
2022-11-07T07:57:33.127Z,3656.00
2022-11-07T08:00:06.655Z,3689.00
2022-11-07T08:02:39.879Z,3660.80
2022-11-07T08:05:15.851Z,3656.00
2022-11-07T08:07:50.367Z,3679.00
2022-11-07T08:13:16.789Z,3646.40
2022-11-07T08:15:50.190Z,3644.80
2022-11-07T08:18:23.579Z,3433.00
2022-11-07T08:20:58.090Z,2460.50
2022-11-07T08:23:31.633Z,3655.40
2022-11-07T08:26:04.986Z,3649.50
2022-11-07T08:28:37.890Z,3641.50
2022-11-07T08:31:13.024Z,3621.40
2022-11-07T08:33:46.055Z,439.60
2022-11-07T08:36:21.143Z,3641.50
2022-11-07T08:38:54.631Z,3620.00
2022-11-07T08:41:27.559Z,3645.50
2022-11-07T08:44:00.474Z,3639.50
2022-11-07T08:46:33.291Z,3626.00
2022-11-07T08:49:06.240Z,3618.20
2022-11-07T08:51:40.530Z,3630.00
2022-11-07T08:54:14.758Z,3638.40
2022-11-07T08:56:48.159Z,3630.00
2022-11-07T08:59:21.195Z,3635.50
2022-11-07T09:02:36.894Z,3593.80
2022-11-07T09:04:48.562Z,2479.40
2022-11-07T09:07:23.834Z,3403.00
2022-11-07T09:09:57.781Z,3473.80
2022-11-07T09:12:31.704Z,3268.80
2022-11-07T09:15:04.957Z,3631.50
2022-11-07T09:17:37.746Z,3610.80
2022-11-07T09:20:11.603Z,3620.00
2022-11-07T09:22:45.798Z,3610.50
2022-11-07T09:25:19.692Z,3612.25
2022-11-07T09:27:52.749Z,3622.00
2022-11-07T09:30:26.624Z,3606.50
2022-11-07T09:32:59.702Z,3595.40
2022-11-07T09:35:32.733Z,3618.25
2022-11-07T09:38:06.988Z,3604.75
2022-11-07T09:40:46.312Z,3614.25
2022-11-07T09:43:45.307Z,3614.25
2022-11-07T09:46:34.972Z,3614.25
2022-11-07T09:49:16.361Z,3598.75
2022-11-07T09:51:54.320Z,3625.75
2022-11-07T09:54:32.946Z,3610.25
2022-11-07T09:57:07.942Z,3597.00
2022-11-07T09:59:50.512Z,3595.50
2022-11-07T10:02:26.963Z,3604.75
2022-11-07T10:05:03.057Z,3568.20
2022-11-07T10:07:43.225Z,3585.75
2022-11-07T10:10:28.095Z,3591.50
2022-11-07T10:13:18.016Z,3621.20
2022-11-07T10:16:00.428Z,3576.00
2022-11-07T10:18:48.199Z,3580.00
2022-11-07T10:21:37.523Z,3461.50
2022-11-07T10:24:27.707Z,3560.20
2022-11-07T10:27:03.186Z,3582.80
2022-11-07T10:29:45.147Z,3584.60
2022-11-07T10:32:25.086Z,20.75
2022-11-07T10:35:11.488Z,9.00
2022-11-07T10:37:45.515Z,20.25
2022-11-07T10:40:21.629Z,2.00
2022-11-07T10:42:56.873Z,2.67
2022-11-07T10:45:31.120Z,2.00
2022-11-07T10:48:05.695Z,2.50
2022-11-07T10:50:40.112Z,2.00
2022-11-07T10:53:20.792Z,3.50
2022-11-07T10:55:56.887Z,4.00
2022-11-07T10:58:36.826Z,3541.00
2022-11-07T11:01:11.811Z,3553.20
2022-11-07T11:03:49.559Z,3276.00
2022-11-07T11:06:27.627Z,2758.25
2022-11-07T11:09:13.075Z,3538.50
2022-11-07T11:11:46.560Z,3572.20
2022-11-07T11:14:22.371Z,3557.25
2022-11-07T11:16:59.193Z,3554.20
2022-11-07T11:19:36.013Z,3209.60
2022-11-07T11:22:18.449Z,2.00
2022-11-07T11:25:00.632Z,2.00
2022-11-07T11:27:36.614Z,2.50
2022-11-07T11:30:16.456Z,2.25
2022-11-07T11:32:53.845Z,2.00
2022-11-07T11:35:41.402Z,15.00
2022-11-07T11:38:18.919Z,4.75
2022-11-07T11:41:04.656Z,2.75
2022-11-07T11:43:45.061Z,3.25
2022-11-07T11:46:29.434Z,10.50
2022-11-07T11:49:12.202Z,2.00
2022-11-07T11:51:49.453Z,3.25
2022-11-07T11:54:23.252Z,1771.00
2022-11-07T11:57:00.093Z,2.00
2022-11-07T12:00:03.567Z,17.50
2022-11-07T12:02:53.258Z,5.50
2022-11-07T12:05:51.807Z,31.25
2022-11-07T12:08:40.881Z,1.50
2022-11-07T12:11:21.354Z,3.00
2022-11-07T12:14:03.236Z,8.50
2022-11-07T12:16:46.032Z,2.67
2022-11-07T12:19:30.994Z,0.00
2022-11-07T12:22:16.272Z,3.50
2022-11-07T12:24:56.391Z,3.50
2022-11-07T12:27:39.455Z,6.50
2022-11-07T12:30:22.517Z,2115.40
2022-11-07T12:33:10.122Z,3513.50
2022-11-07T12:35:53.865Z,3517.00
2022-11-07T12:38:53.722Z,3486.40
2022-11-07T12:41:41.170Z,3491.00
2022-11-07T12:44:40.036Z,3489.80
2022-11-07T12:47:30.037Z,6.33
2022-11-07T12:50:11.866Z,3502.00
2022-11-07T12:53:01.627Z,3503.80
2022-11-07T12:55:42.431Z,3502.00
2022-11-07T12:58:19.302Z,3487.50
2022-11-07T13:00:54.518Z,3409.00
2022-11-07T13:03:54.583Z,3491.00
2022-11-07T13:06:37.163Z,3491.20
2022-11-07T13:09:24.863Z,3477.00
2022-11-07T13:12:06.924Z,3492.75
2022-11-07T13:14:43.520Z,3.75
2022-11-07T13:17:20.007Z,1.00
2022-11-07T13:20:05.224Z,2.75
2022-11-07T13:22:40.473Z,2.00
2022-11-07T13:25:40.746Z,2.00
2022-11-07T13:28:40.521Z,9.25
2022-11-07T13:31:36.188Z,1.50
2022-11-07T13:34:25.989Z,0.25
2022-11-07T13:37:05.350Z,1.75
2022-11-07T13:39:38.313Z,1.50
2022-11-07T13:42:17.418Z,9.67
2022-11-07T13:44:56.633Z,1.00
2022-11-07T13:47:36.029Z,0.00
2022-11-07T13:50:20.250Z,354.33
2022-11-07T13:53:01.506Z,3.00
2022-11-07T13:55:43.177Z,6.67
2022-11-07T13:58:20.606Z,3.00
2022-11-07T14:00:54.444Z,5.00
2022-11-07T14:03:29.574Z,10.33
2022-11-07T14:06:04.677Z,12.00
2022-11-07T14:08:42.469Z,14.25
2022-11-07T14:11:19.724Z,11.33
2022-11-07T14:13:56.227Z,5.75
2022-11-07T14:16:32.172Z,4.50
2022-11-07T14:19:08.371Z,4.00
2022-11-07T14:21:46.575Z,9.33
2022-11-07T14:24:26.009Z,3.50
2022-11-07T14:27:00.582Z,7.00
2022-11-07T14:29:35.898Z,364.25
2022-11-07T14:32:09.329Z,358.75
2022-11-07T14:34:46.975Z,13.25
2022-11-07T14:37:24.017Z,6.50
2022-11-07T14:39:57.846Z,8.00
2022-11-07T14:42:31.672Z,13.67
2022-11-07T14:45:08.450Z,5.50
2022-11-07T14:47:42.906Z,7.50
2022-11-07T14:50:19.667Z,13.00
2022-11-07T14:53:01.029Z,13.00
2022-11-07T14:55:36.285Z,13.00
2022-11-07T14:58:14.167Z,8.50
2022-11-07T15:00:55.257Z,360.25
2022-11-07T15:03:34.709Z,15.33
2022-11-07T15:06:07.713Z,12.33
2022-11-07T15:08:40.609Z,365.75
2022-11-07T15:11:28.150Z,20.00
2022-11-07T15:14:04.243Z,26.25
2022-11-07T15:16:47.100Z,22.75
2022-11-07T15:19:23.407Z,14.67
2022-11-07T15:22:00.920Z,12.75
2022-11-07T15:24:38.632Z,13.33
2022-11-07T15:27:21.367Z,10.50
2022-11-07T15:29:56.591Z,268.75
2022-11-07T15:32:35.242Z,19.75
2022-11-07T15:35:42.502Z,24.25
2022-11-07T15:38:17.997Z,24.50
2022-11-07T15:40:51.550Z,14.67
2022-11-07T15:43:24.653Z,20.00
2022-11-07T15:45:58.125Z,20.00
2022-11-07T15:48:39.782Z,27.25
2022-11-07T15:51:13.969Z,379.00
2022-11-07T15:53:46.810Z,18.75
2022-11-07T15:56:23.325Z,21.75
2022-11-07T15:58:56.860Z,31.50
2022-11-07T16:01:29.875Z,29.20
2022-11-07T16:04:04.408Z,359.67
2022-11-07T16:06:41.929Z,39.75
2022-11-07T16:09:20.241Z,11.00
2022-11-07T16:11:53.172Z,193.75
2022-11-07T16:14:55.894Z,6.67
2022-11-07T16:17:20.624Z,5.50
2022-11-07T16:19:58.779Z,7.00
2022-11-07T16:22:34.243Z,5.75
2022-11-07T16:25:15.996Z,6.25
2022-11-07T16:27:56.013Z,8.75
2022-11-07T16:30:28.857Z,365.00
2022-11-07T16:33:01.996Z,8.33
2022-11-07T16:35:36.218Z,9.50
2022-11-07T16:38:14.436Z,6.50
2022-11-07T16:40:48.011Z,6.00
2022-11-07T16:43:21.211Z,7.50
2022-11-07T16:45:57.419Z,17.50
2022-11-07T16:48:32.908Z,7.25
2022-11-07T16:51:08.574Z,4.50
2022-11-07T16:53:41.519Z,6.00
2022-11-07T16:56:25.224Z,3.00
2022-11-07T16:58:59.044Z,9.00
2022-11-07T17:01:33.036Z,4.33
2022-11-07T17:04:06.309Z,5.00
2022-11-07T17:06:46.638Z,2.25
2022-11-07T17:09:22.396Z,9.75
2022-11-07T17:11:56.058Z,361.25
2022-11-07T17:14:28.924Z,7.33
2022-11-07T17:17:01.717Z,2.00
2022-11-07T17:19:36.283Z,17.50
2022-11-07T17:22:13.089Z,14.00
2022-11-07T17:24:47.910Z,99.75
2022-11-07T17:27:24.086Z,20.75
2022-11-07T17:29:58.115Z,3515.60
2022-11-07T17:32:31.708Z,9.67
2022-11-07T17:35:30.493Z,10.00
2022-11-07T17:38:00.680Z,10.25
2022-11-07T17:40:36.340Z,17.75
2022-11-07T17:43:09.322Z,17.00
2022-11-07T17:45:43.379Z,8.33
2022-11-07T17:48:16.466Z,9.00
2022-11-07T17:50:49.550Z,9.67
2022-11-07T17:53:23.930Z,12.00
2022-11-07T17:55:56.811Z,13.00
2022-11-07T17:58:29.812Z,10.50
2022-11-07T18:01:03.691Z,14.00
2022-11-07T18:03:36.708Z,365.67
2022-11-07T18:06:09.586Z,15.50
2022-11-07T18:08:52.333Z,10.33
2022-11-07T18:11:28.533Z,7.00
2022-11-07T18:14:02.017Z,6.67
2022-11-07T18:16:37.697Z,23.75
2022-11-07T18:19:11.789Z,8.67
2022-11-07T18:21:45.494Z,186.00
2022-11-07T18:24:20.729Z,10.33
2022-11-07T18:26:53.968Z,9.67
2022-11-07T18:29:27.781Z,22.00
2022-11-07T18:32:01.693Z,5.25
2022-11-07T18:34:34.601Z,9.67
2022-11-07T18:37:08.668Z,239.60
2022-11-07T18:39:43.912Z,720.33
2022-11-07T18:42:16.749Z,18.50
2022-11-07T18:44:50.783Z,15.00
2022-11-07T18:47:24.578Z,524.20
2022-11-07T18:49:58.571Z,7.00
2022-11-07T18:52:31.900Z,278.25
2022-11-07T18:55:07.606Z,11.67
2022-11-07T18:57:42.741Z,7.75
2022-11-07T19:00:17.608Z,8.50
2022-11-07T19:02:52.813Z,6.25
2022-11-07T19:05:26.510Z,362.33
2022-11-07T19:08:00.512Z,22.00
2022-11-07T19:10:37.108Z,19.75
2022-11-07T19:13:10.849Z,11.33
2022-11-07T19:15:44.617Z,15.50
2022-11-07T19:18:18.955Z,361.00
2022-11-07T19:20:54.144Z,14.50
2022-11-07T19:23:28.150Z,5.75
2022-11-07T19:26:03.135Z,5.50
2022-11-07T19:28:38.150Z,9.67
2022-11-07T19:31:13.443Z,5.25
2022-11-07T19:33:47.056Z,20.25
2022-11-07T19:36:21.660Z,9.33
2022-11-07T19:38:54.629Z,21.33
2022-11-07T19:41:30.314Z,22.25
2022-11-07T19:44:04.668Z,375.25
2022-11-07T19:46:38.739Z,23.00
2022-11-07T19:49:11.964Z,21.50
2022-11-07T19:51:45.570Z,137.00
2022-11-07T19:54:18.710Z,25.75
2022-11-07T19:56:57.244Z,29.75
2022-11-07T19:59:31.565Z,14.75
2022-11-07T20:02:31.196Z,21.50
2022-11-07T20:04:59.512Z,187.75
2022-11-07T20:07:33.030Z,11.33
2022-11-07T20:10:08.763Z,7.33
2022-11-07T20:12:43.075Z,12.67
2022-11-07T20:15:17.299Z,4.67
2022-11-07T20:17:50.329Z,20.00
2022-11-07T20:20:24.204Z,8.33
2022-11-07T20:22:57.501Z,365.00
2022-11-07T20:25:33.033Z,9.00
2022-11-07T20:28:08.290Z,364.50
2022-11-07T20:30:43.021Z,4.00
2022-11-07T20:33:17.020Z,374.25
2022-11-07T20:35:59.314Z,21.50
2022-11-07T20:38:32.648Z,22.25
2022-11-07T20:41:07.390Z,16.50
2022-11-07T20:43:43.658Z,194.00
2022-11-07T20:46:17.112Z,20.75
2022-11-07T20:48:51.052Z,4.67
2022-11-07T20:51:26.381Z,1012.20
2022-11-07T20:54:00.448Z,6.67
2022-11-07T20:56:34.204Z,202.25
2022-11-07T20:59:09.814Z,21.00
2022-11-07T21:01:43.544Z,27.50
2022-11-07T21:04:17.239Z,358.33
2022-11-07T21:06:50.087Z,369.75
2022-11-07T21:09:24.128Z,189.50
2022-11-07T21:11:57.896Z,15.00
2022-11-07T21:14:32.968Z,726.80
2022-11-07T21:17:07.085Z,179.00
2022-11-07T21:19:40.785Z,367.50
2022-11-07T21:22:14.144Z,7.50
2022-11-07T21:24:47.067Z,13.50
2022-11-07T21:27:20.069Z,279.50
2022-11-07T21:29:54.267Z,250.67
2022-11-07T21:32:27.925Z,548.75
2022-11-07T21:35:01.583Z,126.67
2022-11-07T21:37:35.259Z,10.67
2022-11-07T21:40:10.772Z,21.00
2022-11-07T21:42:44.463Z,11.00
2022-11-07T21:45:18.872Z,20.75
2022-11-07T21:47:52.857Z,534.50
2022-11-07T21:53:20.446Z,364.00
2022-11-07T21:55:54.114Z,358.75
2022-11-07T21:58:28.355Z,859.80
2022-11-07T22:01:05.056Z,9.00
2022-11-07T22:04:04.539Z,384.40
2022-11-07T22:06:34.908Z,115.50
2022-11-07T22:09:10.672Z,11.00
2022-11-07T22:11:44.397Z,22.80
2022-11-07T22:14:18.707Z,372.00
2022-11-07T22:16:56.005Z,14.00
2022-11-07T22:19:28.987Z,445.20
2022-11-07T22:22:02.758Z,139.00
2022-11-07T22:24:37.803Z,23.75
2022-11-07T22:27:11.653Z,629.00
2022-11-07T22:29:47.295Z,846.40
2022-11-07T22:32:22.405Z,11.00
2022-11-07T22:34:56.167Z,16.00
2022-11-07T22:37:29.053Z,36.00
2022-11-07T22:40:02.537Z,25.00
2022-11-07T22:42:36.097Z,27.33
2022-11-07T22:45:11.029Z,3284.50
2022-11-07T22:47:45.310Z,3316.00
2022-11-07T22:50:19.372Z,3541.00
2022-11-07T22:52:52.973Z,2211.20
2022-11-07T22:55:25.922Z,2200.20
2022-11-07T22:57:58.847Z,2296.50
2022-11-07T23:00:33.082Z,2725.75
2022-11-07T23:03:08.146Z,1513.50
2022-11-07T23:05:41.161Z,3161.25
2022-11-07T23:08:15.565Z,3515.80
2022-11-07T23:11:32.484Z,3327.00
2022-11-07T23:14:00.869Z,2469.75
2022-11-07T23:16:36.220Z,3530.60
2022-11-07T23:19:14.638Z,3502.00
2022-11-07T23:21:49.241Z,3516.75
2022-11-07T23:24:23.292Z,2890.60
2022-11-07T23:26:56.305Z,3509.80
2022-11-07T23:29:29.949Z,3502.00
2022-11-07T23:32:04.004Z,3516.50
2022-11-07T23:34:39.596Z,3505.50
2022-11-07T23:37:15.555Z,3508.40
2022-11-07T23:39:49.151Z,3506.80
2022-11-07T23:42:23.223Z,3489.80
2022-11-07T23:45:14.133Z,3373.80
2022-11-07T23:48:04.543Z,3483.50
2022-11-07T23:50:56.672Z,3487.80
2022-11-07T23:53:49.036Z,3498.00
2022-11-07T23:56:24.854Z,3139.00
2022-11-07T23:59:15.775Z,3017.80
